Time;durP1;ratioP1;P1;durP2;ratioP2;P2;SDS_P1;SDS_P2;PMS_P1;PMS_P2;Temp;Humidity;BMP_temperature;BMP_pressure;BME280_temperature;BME280_humidity;BME280_pressure;Samples;Min_cycle;Max_cycle;Signal;HPM_P1;HPM_P2
2023/08/20 00:00:16;;;;;;;;;;;29.20;69.90;;;;;;5004718;28;43165;-87
2023/08/20 00:02:43;;;;;;;;;;;29.10;70.10;;;;;;5001552;28;44316;-87
2023/08/20 00:05:09;;;;;;;;;;;29.10;70.70;;;;;;5005504;28;44071;-86
2023/08/20 00:07:37;;;;;;;;;;;29.10;69.80;;;;;;5004255;28;43721;-86
2023/08/20 00:10:04;;;;;;;;;;;29.30;70.30;;;;;;5005075;28;43002;-85
2023/08/20 00:12:30;;;;;;;;;;;29.20;70.00;;;;;;5004413;28;43715;-85
2023/08/20 00:14:56;;;;;;;;;;;29.10;69.70;;;;;;5005645;28;43009;-86
2023/08/20 00:17:24;;;;;;;;;;;29.10;69.90;;;;;;5019654;28;44507;-87
2023/08/20 00:19:50;;;;;;;;;;;29.10;70.10;;;;;;5005152;28;43017;-85
2023/08/20 00:22:16;;;;;;;;;;;29.10;69.90;;;;;;5000778;28;44074;-85
2023/08/20 00:24:42;;;;;;;;;;;29.10;69.80;;;;;;5003706;28;43034;-84
2023/08/20 00:27:07;;;;;;;;;;;29.10;71.10;;;;;;5019336;28;46126;-85
2023/08/20 00:29:33;;;;;;;;;;;29.10;70.10;;;;;;4998025;28;42952;-85
2023/08/20 00:31:58;;;;;;;;;;;29.10;69.70;;;;;;5003840;28;44022;-85
2023/08/20 00:34:24;;;;;;;;;;;29.20;70.20;;;;;;5005478;28;43064;-84
2023/08/20 00:36:49;;;;;;;;;;;29.00;70.00;;;;;;5003826;28;43966;-86
2023/08/20 00:39:15;;;;;;;;;;;29.10;69.60;;;;;;5004117;28;43202;-88
2023/08/20 00:41:41;;;;;;;;;;;29.10;70.40;;;;;;5003936;28;45158;-88
2023/08/20 00:44:06;;;;;;;;;;;29.00;70.10;;;;;;5004061;28;43057;-88
2023/08/20 00:46:41;;;;;;;;;;;28.90;69.50;;;;;;5016837;28;44694;-87
2023/08/20 00:49:21;;;;;;;;;;;28.90;67.30;;;;;;4991866;28;43035;-87
2023/08/20 00:51:52;;;;;;;;;;;29.10;67.40;;;;;;4997518;28;42926;-88
2023/08/20 00:54:22;;;;;;;;;;;29.10;69.90;;;;;;5005246;28;42784;-88
2023/08/20 00:57:17;;;;;;;;;;;29.00;67.30;;;;;;4994637;28;43661;-88
2023/08/20 00:59:43;;;;;;;;;;;29.20;67.00;;;;;;5004258;28;43156;-86
2023/08/20 01:02:08;;;;;;;;;;;29.10;69.70;;;;;;5003252;28;44367;-84
2023/08/20 01:04:34;;;;;;;;;;;29.10;69.70;;;;;;5005316;28;42953;-84
2023/08/20 01:07:07;;;;;;;;;;;29.10;69.90;;;;;;5004917;28;43589;-84
2023/08/20 01:09:36;;;;;;;;;;;29.10;67.60;;;;;;5004699;28;43105;-85
2023/08/20 01:12:03;;;;;;;;;;;29.40;67.40;;;;;;5002854;28;43361;-85
2023/08/20 01:14:28;;;;;;;;;;;29.00;70.50;;;;;;5004269;28;43006;-88
2023/08/20 01:17:04;;;;;;;;;;;29.00;69.90;;;;;;5005003;28;43433;-88
2023/08/20 01:19:52;;;;;;;;;;;29.00;69.60;;;;;;4991843;28;43042;-88
2023/08/20 01:25:57;;;;;;;;;;;29.00;66.80;;;;;;5001996;28;42878;-88
2023/08/20 01:28:31;;;;;;;;;;;29.10;67.90;;;;;;5002284;28;43158;-88
2023/08/20 01:31:03;;;;;;;;;;;28.90;67.20;;;;;;5003102;28;43066;-89
2023/08/20 01:33:31;;;;;;;;;;;28.90;67.40;;;;;;5000230;28;43389;-88
2023/08/20 01:36:00;;;;;;;;;;;28.90;67.40;;;;;;5001142;28;43054;-88
2023/08/20 01:38:25;;;;;;;;;;;29.00;66.90;;;;;;5002565;28;43645;-89
2023/08/20 01:40:51;;;;;;;;;;;29.10;69.80;;;;;;5003963;28;43078;-87
2023/08/20 01:43:26;;;;;;;;;;;29.00;69.90;;;;;;5003459;28;43102;-87
2023/08/20 01:45:51;;;;;;;;;;;28.90;67.00;;;;;;5000053;28;43097;-87
2023/08/20 01:48:17;;;;;;;;;;;29.00;69.30;;;;;;5001603;28;44625;-84
2023/08/20 01:50:43;;;;;;;;;;;29.00;69.80;;;;;;5002813;28;43191;-84
2023/08/20 01:53:10;;;;;;;;;;;29.00;68.40;;;;;;5001012;28;64239;-84
2023/08/20 01:55:36;;;;;;;;;;;29.00;69.70;;;;;;5002936;28;42920;-84
2023/08/20 01:58:01;;;;;;;;;;;28.90;69.60;;;;;;5002559;28;43355;-84
2023/08/20 02:00:28;;;;;;;;;;;29.20;69.90;;;;;;5002392;28;43102;-84
2023/08/20 02:02:54;;;;;;;;;;;28.90;70.20;;;;;;4997157;28;43073;-88
2023/08/20 02:05:19;;;;;;;;;;;28.90;69.60;;;;;;5004022;28;42966;-86
2023/08/20 02:07:45;;;;;;;;;;;28.90;69.70;;;;;;5004247;28;43891;-85
2023/08/20 02:10:10;;;;;;;;;;;28.90;69.70;;;;;;5003843;28;43139;-85
2023/08/20 02:12:36;;;;;;;;;;;28.90;69.60;;;;;;5002220;28;43995;-85
2023/08/20 02:15:03;;;;;;;;;;;29.00;69.80;;;;;;5001898;28;43037;-84
2023/08/20 02:17:29;;;;;;;;;;;29.00;69.60;;;;;;5001490;28;44814;-88
2023/08/20 02:19:54;;;;;;;;;;;28.90;69.40;;;;;;5003996;28;43260;-86
2023/08/20 02:22:20;;;;;;;;;;;28.90;69.70;;;;;;5002000;28;44483;-86
2023/08/20 02:24:46;;;;;;;;;;;28.90;69.60;;;;;;5002489;28;43081;-85
2023/08/20 02:27:11;;;;;;;;;;;28.90;69.30;;;;;;4994140;28;43141;-85
2023/08/20 02:29:37;;;;;;;;;;;28.90;69.70;;;;;;5001435;28;42936;-86
2023/08/20 02:32:03;;;;;;;;;;;28.90;69.50;;;;;;5003405;28;43880;-85
2023/08/20 02:34:31;;;;;;;;;;;28.90;69.10;;;;;;5001602;28;42979;-87
2023/08/20 02:37:06;;;;;;;;;;;28.90;67.10;;;;;;5006847;28;43835;-87
2023/08/20 02:39:38;;;;;;;;;;;28.80;67.00;;;;;;5006589;28;43203;-87
2023/08/20 02:45:22;;;;;;;;;;;28.90;66.90;;;;;;5004638;28;42930;-87
2023/08/20 02:48:00;;;;;;;;;;;28.90;67.20;;;;;;5006970;28;42974;-87
2023/08/20 02:50:26;;;;;;;;;;;28.90;67.00;;;;;;5006618;28;43174;-87
2023/08/20 02:52:51;;;;;;;;;;;28.80;69.20;;;;;;5021743;28;44664;-84
2023/08/20 02:55:17;;;;;;;;;;;28.90;69.50;;;;;;5018785;28;43100;-85
2023/08/20 02:57:42;;;;;;;;;;;28.90;69.60;;;;;;5001962;28;43430;-85
2023/08/20 03:00:11;;;;;;;;;;;28.90;69.60;;;;;;5006267;28;42927;-83
2023/08/20 03:02:36;;;;;;;;;;;28.80;69.40;;;;;;5007193;28;43041;-86
2023/08/20 03:05:05;;;;;;;;;;;28.80;69.40;;;;;;5006960;28;42943;-84
2023/08/20 03:07:31;;;;;;;;;;;28.80;69.40;;;;;;5005979;28;43116;-85
2023/08/20 03:09:57;;;;;;;;;;;28.80;69.00;;;;;;5005184;28;42999;-84
2023/08/20 03:12:23;;;;;;;;;;;28.80;69.40;;;;;;5006173;28;44020;-85
2023/08/20 03:14:48;;;;;;;;;;;28.70;69.00;;;;;;5006531;28;43010;-83
2023/08/20 03:17:13;;;;;;;;;;;28.80;68.90;;;;;;5006729;28;42994;-84
2023/08/20 03:19:53;;;;;;;;;;;28.80;69.30;;;;;;5006303;28;42963;-84
2023/08/20 03:22:18;;;;;;;;;;;28.90;70.00;;;;;;5002406;28;43848;-83
2023/08/20 03:24:44;;;;;;;;;;;28.80;69.30;;;;;;5001929;28;43040;-84
2023/08/20 03:27:09;;;;;;;;;;;28.80;69.20;;;;;;5005120;28;43828;-84
2023/08/20 03:29:34;;;;;;;;;;;28.90;69.40;;;;;;5006073;28;42824;-84
2023/08/20 03:32:00;;;;;;;;;;;28.80;69.20;;;;;;5005908;28;43018;-84
2023/08/20 03:34:25;;;;;;;;;;;28.80;69.10;;;;;;5004600;28;42900;-84
2023/08/20 03:36:51;;;;;;;;;;;28.90;69.50;;;;;;5003060;28;45554;-84
2023/08/20 03:39:16;;;;;;;;;;;28.80;69.20;;;;;;5006046;28;43027;-84
2023/08/20 03:41:42;;;;;;;;;;;28.80;68.70;;;;;;5004662;28;43444;-84
2023/08/20 03:44:07;;;;;;;;;;;28.80;69.30;;;;;;5005819;28;42895;-83
2023/08/20 03:46:33;;;;;;;;;;;28.70;69.30;;;;;;5005403;28;43838;-83
2023/08/20 03:48:58;;;;;;;;;;;28.70;68.60;;;;;;5006248;28;43071;-89
2023/08/20 03:51:24;;;;;;;;;;;28.80;69.10;;;;;;5004624;28;43560;-85
2023/08/20 03:53:49;;;;;;;;;;;28.70;69.30;;;;;;5004468;28;43468;-86
2023/08/20 03:56:15;;;;;;;;;;;28.80;69.20;;;;;;4999086;28;44600;-84
2023/08/20 03:58:40;;;;;;;;;;;28.70;69.20;;;;;;4996492;28;43927;-83
2023/08/20 04:01:06;;;;;;;;;;;28.70;69.00;;;;;;5005567;28;43595;-84
2023/08/20 04:03:32;;;;;;;;;;;28.80;69.00;;;;;;5005546;28;43027;-83
2023/08/20 04:05:59;;;;;;;;;;;28.80;69.10;;;;;;5005396;28;43365;-85
2023/08/20 04:08:25;;;;;;;;;;;28.80;69.20;;;;;;5004568;28;43072;-85
2023/08/20 04:10:51;;;;;;;;;;;28.70;69.00;;;;;;5019978;28;44290;-86
2023/08/20 04:13:17;;;;;;;;;;;28.70;69.00;;;;;;5003959;28;43100;-87
2023/08/20 04:15:43;;;;;;;;;;;28.50;69.00;;;;;;5004232;28;43685;-84
2023/08/20 04:18:08;;;;;;;;;;;28.70;69.00;;;;;;5005032;28;42901;-86
2023/08/20 04:20:37;;;;;;;;;;;28.60;68.90;;;;;;5003253;28;45610;-85
2023/08/20 04:23:05;;;;;;;;;;;28.70;66.60;;;;;;5004703;28;43026;-85
2023/08/20 04:25:31;;;;;;;;;;;28.60;66.70;;;;;;5004716;28;42855;-84
2023/08/20 04:27:59;;;;;;;;;;;28.70;68.70;;;;;;5003894;28;43133;-88
2023/08/20 04:30:27;;;;;;;;;;;28.60;68.90;;;;;;5004689;28;43748;-85
2023/08/20 04:32:52;;;;;;;;;;;28.80;66.70;;;;;;5004980;28;42843;-85
2023/08/20 04:35:18;;;;;;;;;;;28.70;68.80;;;;;;5002952;28;43076;-85
2023/08/20 04:37:43;;;;;;;;;;;28.70;69.00;;;;;;5003476;28;42985;-85
2023/08/20 04:40:38;;;;;;;;;;;28.60;69.30;;;;;;5003226;28;43342;-85
2023/08/20 04:43:04;;;;;;;;;;;28.70;68.70;;;;;;4999192;28;43232;-85
2023/08/20 04:45:29;;;;;;;;;;;28.70;69.00;;;;;;4990961;28;44243;-85
2023/08/20 04:47:55;;;;;;;;;;;28.50;68.60;;;;;;4985546;28;43092;-85
2023/08/20 04:50:20;;;;;;;;;;;28.60;68.90;;;;;;5002082;28;43522;-88
2023/08/20 04:52:46;;;;;;;;;;;28.60;69.00;;;;;;4984219;28;43191;-87
2023/08/20 04:55:12;;;;;;;;;;;28.70;69.00;;;;;;4985185;28;43071;-85
2023/08/20 04:57:37;;;;;;;;;;;28.60;68.80;;;;;;4999367;28;43035;-86
2023/08/20 05:00:03;;;;;;;;;;;28.60;68.90;;;;;;5002349;28;43747;-86
2023/08/20 05:02:28;;;;;;;;;;;28.60;68.70;;;;;;4985262;28;43175;-86
2023/08/20 05:04:54;;;;;;;;;;;28.50;68.80;;;;;;5002635;28;43068;-86
2023/08/20 05:07:20;;;;;;;;;;;28.60;69.00;;;;;;5001915;28;43034;-86
2023/08/20 05:09:45;;;;;;;;;;;28.60;68.90;;;;;;5002287;28;42985;-85
2023/08/20 05:12:11;;;;;;;;;;;28.10;68.80;;;;;;4984093;28;43476;-86
2023/08/20 05:14:36;;;;;;;;;;;28.60;68.90;;;;;;5001163;28;44417;-84
2023/08/20 05:17:02;;;;;;;;;;;28.50;68.90;;;;;;5001894;28;43079;-84
2023/08/20 05:19:28;;;;;;;;;;;28.60;69.00;;;;;;5002881;28;43015;-84
2023/08/20 05:21:55;;;;;;;;;;;28.70;69.30;;;;;;5004585;28;43339;-85
2023/08/20 05:24:22;;;;;;;;;;;28.50;69.80;;;;;;5004941;28;42994;-86
2023/08/20 05:26:49;;;;;;;;;;;28.60;68.90;;;;;;5002310;28;43087;-85
2023/08/20 05:29:15;;;;;;;;;;;28.60;69.20;;;;;;5003375;28;43692;-89
2023/08/20 05:31:40;;;;;;;;;;;28.60;69.40;;;;;;4999157;28;43147;-90
2023/08/20 05:34:06;;;;;;;;;;;28.50;69.70;;;;;;4994288;28;43343;-87
2023/08/20 05:36:31;;;;;;;;;;;28.60;69.50;;;;;;5003344;28;43006;-87
2023/08/20 05:39:38;;;;;;;;;;;28.60;69.30;;;;;;5003830;28;43077;-87
2023/08/20 05:42:06;;;;;;;;;;;28.60;66.80;;;;;;4997685;28;43142;-87
2023/08/20 05:44:42;;;;;;;;;;;28.60;69.40;;;;;;5018030;28;45271;-87
2023/08/20 05:47:13;;;;;;;;;;;28.80;67.10;;;;;;5000223;28;42870;-85
2023/08/20 05:49:56;;;;;;;;;;;28.70;67.10;;;;;;4992249;28;43100;-85
2023/08/20 05:52:22;;;;;;;;;;;28.60;69.50;;;;;;5000879;28;43165;-86
2023/08/20 05:54:47;;;;;;;;;;;28.70;69.70;;;;;;5003089;28;43051;-88
2023/08/20 05:57:31;;;;;;;;;;;28.60;69.60;;;;;;5016173;28;43351;-90
2023/08/20 06:00:00;;;;;;;;;;;28.70;67.20;;;;;;5003420;28;42995;-89
2023/08/20 06:02:25;;;;;;;;;;;28.70;67.30;;;;;;5001465;28;43048;-87
2023/08/20 06:04:51;;;;;;;;;;;28.70;69.90;;;;;;5018541;28;43407;-84
2023/08/20 06:07:20;;;;;;;;;;;28.70;70.00;;;;;;4995383;28;43044;-86
2023/08/20 06:09:45;;;;;;;;;;;27.90;67.10;;;;;;4994614;28;42903;-86
2023/08/20 06:12:11;;;;;;;;;;;28.70;70.10;;;;;;5001779;28;43184;-85
2023/08/20 06:14:36;;;;;;;;;;;28.60;70.30;;;;;;5000332;28;42958;-85
2023/08/20 06:17:02;;;;;;;;;;;28.70;70.50;;;;;;5002703;28;43319;-85
2023/08/20 06:19:29;;;;;;;;;;;28.60;70.50;;;;;;5004217;28;43013;-85
2023/08/20 06:21:54;;;;;;;;;;;28.60;70.50;;;;;;5002416;28;43040;-84
2023/08/20 06:24:20;;;;;;;;;;;28.60;70.70;;;;;;5000152;28;43081;-82
2023/08/20 06:26:45;;;;;;;;;;;28.70;70.70;;;;;;5000455;28;43009;-88
2023/08/20 06:29:11;;;;;;;;;;;28.70;70.70;;;;;;4995264;28;43985;-91
2023/08/20 06:31:36;;;;;;;;;;;28.60;70.60;;;;;;5001634;28;43689;-89
2023/08/20 06:34:02;;;;;;;;;;;28.80;71.80;;;;;;5000768;28;43034;-87
2023/08/20 06:36:28;;;;;;;;;;;28.60;71.00;;;;;;4999295;28;42982;-86
2023/08/20 06:38:53;;;;;;;;;;;28.60;70.90;;;;;;5001024;28;42899;-89
2023/08/20 06:41:19;;;;;;;;;;;28.60;70.90;;;;;;5003165;28;43014;-80
2023/08/20 06:43:44;;;;;;;;;;;28.70;71.10;;;;;;5002162;28;42890;-84
2023/08/20 06:46:10;;;;;;;;;;;28.80;71.80;;;;;;4999749;28;43065;-86
2023/08/20 06:48:35;;;;;;;;;;;28.60;71.20;;;;;;5000251;28;44439;-87
2023/08/20 06:51:13;;;;;;;;;;;28.50;71.20;;;;;;5002981;28;42998;-89
2023/08/20 06:53:40;;;;;;;;;;;28.60;69.30;;;;;;4992863;28;43628;-85
2023/08/20 06:56:11;;;;;;;;;;;28.60;71.30;;;;;;4991674;28;42977;-85
2023/08/20 06:58:40;;;;;;;;;;;28.80;69.50;;;;;;5002936;28;43442;-79
2023/08/20 07:01:10;;;;;;;;;;;28.80;69.50;;;;;;4997845;28;43291;-81
2023/08/20 07:03:37;;;;;;;;;;;28.60;68.90;;;;;;5002678;28;42946;-79
2023/08/20 07:06:02;;;;;;;;;;;28.70;71.60;;;;;;4992978;28;43664;-79
2023/08/20 07:08:28;;;;;;;;;;;28.60;71.60;;;;;;5002350;28;43821;-79
2023/08/20 07:10:53;;;;;;;;;;;28.70;71.90;;;;;;5001535;28;43079;-78
2023/08/20 07:13:19;;;;;;;;;;;28.70;72.00;;;;;;4999085;28;43671;-79
2023/08/20 07:15:45;;;;;;;;;;;28.80;74.50;;;;;;5000606;28;44186;-79
2023/08/20 07:18:13;;;;;;;;;;;28.80;76.20;;;;;;4999563;28;43391;-79
2023/08/20 07:20:39;;;;;;;;;;;28.80;76.40;;;;;;4999091;28;43015;-79
2023/08/20 07:23:04;;;;;;;;;;;28.90;75.90;;;;;;5005759;28;43918;-78
2023/08/20 07:25:30;;;;;;;;;;;29.00;75.80;;;;;;4998650;28;44358;-78
2023/08/20 07:27:59;;;;;;;;;;;28.80;75.80;;;;;;4997414;28;43624;-78
2023/08/20 07:30:28;;;;;;;;;;;28.70;75.00;;;;;;5004054;28;43313;-79
2023/08/20 07:32:53;;;;;;;;;;;28.80;73.10;;;;;;5002340;28;42824;-81
2023/08/20 07:35:19;;;;;;;;;;;28.70;76.40;;;;;;5001571;28;43053;-79
2023/08/20 07:37:46;;;;;;;;;;;28.90;76.40;;;;;;5004584;28;42988;-79
2023/08/20 07:40:12;;;;;;;;;;;28.90;77.40;;;;;;5003503;28;43729;-77
2023/08/20 07:42:38;;;;;;;;;;;29.00;77.30;;;;;;5005171;28;43534;-90
2023/08/20 07:45:03;;;;;;;;;;;28.90;76.20;;;;;;5005877;28;42903;-82
2023/08/20 07:47:29;;;;;;;;;;;28.80;76.40;;;;;;4999180;28;43064;-88
2023/08/20 07:49:55;;;;;;;;;;;29.00;77.00;;;;;;5003420;28;43020;-78
2023/08/20 07:52:20;;;;;;;;;;;28.90;77.00;;;;;;5004370;28;43912;-81
2023/08/20 07:54:46;;;;;;;;;;;28.90;77.40;;;;;;5004991;28;43077;-78
2023/08/20 07:57:12;;;;;;;;;;;28.80;78.20;;;;;;5005532;28;43447;-81
2023/08/20 07:59:37;;;;;;;;;;;28.90;78.50;;;;;;4999663;28;43102;-79
2023/08/20 08:02:03;;;;;;;;;;;29.00;77.90;;;;;;5005743;28;43481;-79
2023/08/20 08:04:29;;;;;;;;;;;29.00;77.10;;;;;;5005054;28;43051;-79
2023/08/20 08:06:54;;;;;;;;;;;28.80;77.20;;;;;;5005857;28;42946;-81
2023/08/20 08:09:21;;;;;;;;;;;28.90;77.10;;;;;;5003681;28;42947;-81
2023/08/20 08:11:47;;;;;;;;;;;28.70;76.80;;;;;;5005630;28;43110;-82
2023/08/20 08:14:12;;;;;;;;;;;29.00;76.70;;;;;;5005148;28;43132;-81
2023/08/20 08:16:38;;;;;;;;;;;29.00;78.20;;;;;;5005023;28;43003;-79
2023/08/20 08:19:03;;;;;;;;;;;28.90;78.00;;;;;;5004060;28;43032;-80
2023/08/20 08:21:29;;;;;;;;;;;28.90;77.20;;;;;;5004608;28;42872;-80
2023/08/20 08:23:55;;;;;;;;;;;29.00;77.10;;;;;;5005462;28;43039;-79
2023/08/20 08:26:20;;;;;;;;;;;28.90;78.00;;;;;;5005698;28;43367;-80
2023/08/20 08:28:46;;;;;;;;;;;28.90;77.80;;;;;;5004350;28;43145;-80
2023/08/20 08:31:12;;;;;;;;;;;29.00;77.50;;;;;;5004125;28;43303;-81
2023/08/20 08:33:37;;;;;;;;;;;28.90;78.10;;;;;;5005176;28;42999;-81
2023/08/20 08:36:03;;;;;;;;;;;29.00;78.50;;;;;;5005091;28;43465;-82
2023/08/20 08:38:28;;;;;;;;;;;29.00;78.00;;;;;;5003112;28;43623;-80
2023/08/20 08:40:55;;;;;;;;;;;28.90;78.30;;;;;;4994916;28;42915;-81
2023/08/20 08:43:21;;;;;;;;;;;28.90;78.00;;;;;;5001906;28;43001;-81
2023/08/20 08:45:50;;;;;;;;;;;29.00;77.60;;;;;;5013035;28;42983;-82
2023/08/20 08:48:16;;;;;;;;;;;29.10;77.70;;;;;;5004749;28;42989;-81
2023/08/20 08:50:42;;;;;;;;;;;28.90;77.20;;;;;;5004767;28;42988;-80
2023/08/20 08:53:08;;;;;;;;;;;29.00;77.60;;;;;;5001235;28;42959;-84
2023/08/20 08:55:34;;;;;;;;;;;28.70;77.10;;;;;;5004486;28;42927;-76
2023/08/20 08:57:59;;;;;;;;;;;29.10;78.10;;;;;;5004065;28;42970;-82
2023/08/20 09:00:25;;;;;;;;;;;29.10;77.30;;;;;;5004655;28;43584;-83
2023/08/20 09:02:50;;;;;;;;;;;29.00;77.70;;;;;;4993583;28;43238;-81
2023/08/20 09:05:16;;;;;;;;;;;28.60;77.00;;;;;;5000011;28;42970;-84
2023/08/20 09:07:44;;;;;;;;;;;29.20;78.20;;;;;;4999661;28;43052;-82
2023/08/20 09:10:10;;;;;;;;;;;29.10;75.90;;;;;;4999477;28;44049;-84
2023/08/20 09:12:47;;;;;;;;;;;29.00;78.20;;;;;;4997249;28;43301;-81
2023/08/20 09:15:15;;;;;;;;;;;28.90;75.60;;;;;;4999738;28;43326;-84
2023/08/20 09:17:43;;;;;;;;;;;29.00;78.40;;;;;;4994720;28;43034;-83
2023/08/20 09:20:09;;;;;;;;;;;29.20;76.20;;;;;;4996639;28;45505;-83
2023/08/20 09:22:35;;;;;;;;;;;29.10;78.90;;;;;;5003065;28;43102;-82
2023/08/20 09:25:02;;;;;;;;;;;29.10;79.10;;;;;;5021542;28;45520;-84
2023/08/20 09:27:40;;;;;;;;;;;29.20;79.00;;;;;;5002916;28;42921;-84
2023/08/20 09:30:05;;;;;;;;;;;29.20;76.60;;;;;;5000453;28;43677;-83
2023/08/20 09:32:37;;;;;;;;;;;29.30;79.30;;;;;;5004338;28;43022;-84
2023/08/20 09:35:17;;;;;;;;;;;29.20;76.70;;;;;;5017444;28;45383;-84
2023/08/20 09:37:43;;;;;;;;;;;29.30;76.90;;;;;;5007395;28;43045;-83
2023/08/20 09:40:09;;;;;;;;;;;29.20;79.20;;;;;;4993530;28;43508;-84
2023/08/20 09:42:35;;;;;;;;;;;29.20;79.60;;;;;;5004291;28;43082;-84
2023/08/20 09:45:04;;;;;;;;;;;29.20;79.50;;;;;;4998415;28;43435;-84
2023/08/20 09:47:33;;;;;;;;;;;29.10;79.40;;;;;;4999852;28;43025;-84
2023/08/20 09:50:10;;;;;;;;;;;29.30;79.50;;;;;;5004010;28;43673;-83
2023/08/20 09:52:43;;;;;;;;;;;29.20;77.00;;;;;;4998514;28;43388;-83
2023/08/20 09:55:09;;;;;;;;;;;30.30;78.50;;;;;;5004522;28;43153;-85
2023/08/20 09:57:39;;;;;;;;;;;29.40;80.40;;;;;;4997891;28;43114;-82
2023/08/20 10:00:12;;;;;;;;;;;29.20;77.80;;;;;;5001522;28;42990;-85
2023/08/20 10:02:38;;;;;;;;;;;29.30;77.80;;;;;;5003925;28;43072;-84
2023/08/20 10:05:07;;;;;;;;;;;29.20;79.80;;;;;;5007166;28;44005;-84
2023/08/20 10:07:33;;;;;;;;;;;29.40;78.20;;;;;;5015671;28;42994;-82
2023/08/20 10:10:01;;;;;;;;;;;29.30;81.50;;;;;;5017183;28;45691;-82
2023/08/20 10:12:27;;;;;;;;;;;29.30;80.60;;;;;;4997558;28;43186;-81
2023/08/20 10:14:53;;;;;;;;;;;29.40;80.70;;;;;;5006003;28;43192;-82
2023/08/20 10:17:19;;;;;;;;;;;29.40;81.10;;;;;;5005253;28;43245;-82
2023/08/20 10:22:32;;;;;;;;;;;29.40;81.40;;;;;;5015072;28;43366;-84
2023/08/20 10:25:00;;;;;;;;;;;29.40;81.70;;;;;;5017211;28;43101;-84
2023/08/20 10:27:27;;;;;;;;;;;29.40;80.90;;;;;;5018284;28;43109;-84
2023/08/20 10:29:53;;;;;;;;;;;29.40;81.50;;;;;;5019236;28;43938;-84
2023/08/20 10:32:19;;;;;;;;;;;29.80;81.70;;;;;;5017151;28;43215;-84
2023/08/20 10:34:49;;;;;;;;;;;29.40;80.90;;;;;;5026287;28;43119;-85
2023/08/20 10:37:15;;;;;;;;;;;29.40;80.70;;;;;;5001409;28;43037;-79
2023/08/20 10:39:44;;;;;;;;;;;29.50;81.70;;;;;;5012230;28;43249;-82
2023/08/20 10:42:23;;;;;;;;;;;27.10;77.40;;;;;;5014366;28;43082;-79
2023/08/20 10:45:04;;;;;;;;;;;29.60;81.10;;;;;;5011546;28;43850;-79
2023/08/20 10:47:37;;;;;;;;;;;29.20;78.70;;;;;;5012355;28;42946;-79
2023/08/20 10:50:02;;;;;;;;;;;29.10;77.30;;;;;;5018935;28;43418;-83
2023/08/20 10:52:28;;;;;;;;;;;28.30;78.50;;;;;;5012262;28;43092;-84
2023/08/20 10:54:55;;;;;;;;;;;28.10;78.10;;;;;;5020178;28;43052;-92
2023/08/20 10:57:21;;;;;;;;;;;28.00;79.50;;;;;;4996782;28;43078;-92
2023/08/20 10:59:58;;;;;;;;;;;27.90;81.30;;;;;;5005727;28;43398;-91
2023/08/20 11:02:24;;;;;;;;;;;28.20;79.50;;;;;;4999242;28;43010;-91
2023/08/20 11:04:49;;;;;;;;;;;28.30;81.40;;;;;;4996659;28;43598;-84
2023/08/20 11:07:17;;;;;;;;;;;28.50;78.60;;;;;;4994548;28;43081;-85
2023/08/20 11:09:44;;;;;;;;;;;28.10;78.60;;;;;;5007322;28;45700;-86
2023/08/20 11:12:10;;;;;;;;;;;28.00;78.20;;;;;;5001093;28;42835;-86
2023/08/20 11:14:35;;;;;;;;;;;27.70;77.70;;;;;;5001574;28;44902;-85
2023/08/20 11:17:01;;;;;;;;;;;27.60;77.60;;;;;;5004284;28;42947;-86
2023/08/20 11:19:28;;;;;;;;;;;27.30;77.30;;;;;;5003943;28;43660;-85
2023/08/20 11:21:54;;;;;;;;;;;27.30;77.40;;;;;;5001921;28;43096;-84
2023/08/20 11:24:20;;;;;;;;;;;27.20;79.40;;;;;;5003258;28;44044;-83
2023/08/20 11:26:46;;;;;;;;;;;27.00;77.60;;;;;;5010015;28;43224;-88
2023/08/20 11:29:13;;;;;;;;;;;27.00;77.50;;;;;;5001636;28;42986;-84
2023/08/20 11:31:41;;;;;;;;;;;26.80;77.90;;;;;;5000639;28;43034;-85
2023/08/20 11:34:10;;;;;;;;;;;26.90;76.60;;;;;;5004031;28;43795;-85
2023/08/20 11:36:35;;;;;;;;;;;26.70;75.60;;;;;;4999552;28;43151;-88
2023/08/20 11:39:01;;;;;;;;;;;26.60;78.30;;;;;;5003001;28;44278;-86
2023/08/20 11:41:27;;;;;;;;;;;26.70;78.90;;;;;;5000451;28;43234;-87
2023/08/20 11:43:53;;;;;;;;;;;26.90;79.60;;;;;;5001306;28;44997;-86
2023/08/20 11:46:25;;;;;;;;;;;27.10;79.40;;;;;;5004055;28;42963;-87
2023/08/20 11:49:09;;;;;;;;;;;27.30;76.30;;;;;;5004890;28;43584;-85
2023/08/20 11:51:46;;;;;;;;;;;27.60;76.10;;;;;;5004452;28;43188;-85
2023/08/20 11:54:12;;;;;;;;;;;27.70;77.20;;;;;;4997438;28;43740;-85
2023/08/20 11:56:48;;;;;;;;;;;27.70;74.30;;;;;;5000401;28;43058;-84
2023/08/20 11:59:14;;;;;;;;;;;27.40;72.70;;;;;;5015309;28;43081;-83
2023/08/20 12:01:40;;;;;;;;;;;27.00;76.00;;;;;;5012163;28;42985;-85
2023/08/20 12:04:07;;;;;;;;;;;26.70;76.50;;;;;;5008854;28;43035;-86
2023/08/20 12:06:34;;;;;;;;;;;26.50;75.60;;;;;;5008277;28;43089;-86
2023/08/20 12:09:00;;;;;;;;;;;26.40;75.90;;;;;;5006304;28;43727;-83
2023/08/20 12:11:29;;;;;;;;;;;26.30;75.60;;;;;;5007403;28;43740;-80
2023/08/20 12:13:55;;;;;;;;;;;26.10;71.10;;;;;;5017654;28;43738;-81
2023/08/20 12:16:24;;;;;;;;;;;25.90;73.20;;;;;;5006277;28;43252;-87
2023/08/20 12:18:51;;;;;;;;;;;26.00;72.40;;;;;;5003904;28;43076;-83
2023/08/20 12:21:17;;;;;;;;;;;25.80;74.00;;;;;;5005767;28;42994;-88
2023/08/20 12:23:43;;;;;;;;;;;25.80;72.80;;;;;;5004960;28;43541;-85
2023/08/20 12:26:08;;;;;;;;;;;25.60;72.80;;;;;;5010518;28;43127;-83
2023/08/20 12:28:34;;;;;;;;;;;25.70;72.10;;;;;;5008436;28;43652;-85
2023/08/20 12:31:00;;;;;;;;;;;25.50;71.10;;;;;;5006116;28;42991;-83
2023/08/20 12:33:25;;;;;;;;;;;25.30;72.30;;;;;;5008221;28;43158;-84
2023/08/20 12:35:54;;;;;;;;;;;25.50;71.10;;;;;;5010521;28;43121;-84
2023/08/20 12:38:19;;;;;;;;;;;25.30;70.60;;;;;;5009044;28;43677;-85
2023/08/20 12:40:45;;;;;;;;;;;25.40;71.30;;;;;;5013612;28;43061;-86
2023/08/20 12:43:10;;;;;;;;;;;25.30;70.60;;;;;;5002589;28;43915;-82
2023/08/20 12:45:36;;;;;;;;;;;25.10;70.30;;;;;;5006696;28;43055;-83
2023/08/20 12:48:03;;;;;;;;;;;25.20;70.20;;;;;;5007876;28;43044;-83
2023/08/20 12:50:33;;;;;;;;;;;25.30;70.20;;;;;;5008349;28;43261;-83
2023/08/20 12:52:59;;;;;;;;;;;25.50;68.80;;;;;;5006075;28;43933;-84
2023/08/20 12:55:24;;;;;;;;;;;25.10;70.00;;;;;;5015193;28;43903;-81
2023/08/20 12:57:55;;;;;;;;;;;25.00;70.40;;;;;;5003047;28;43440;-85
2023/08/20 13:00:21;;;;;;;;;;;25.00;68.40;;;;;;5002411;28;43215;-83
2023/08/20 13:02:47;;;;;;;;;;;24.90;70.10;;;;;;5000870;28;43050;-87
2023/08/20 13:05:12;;;;;;;;;;;24.90;70.00;;;;;;5003274;28;43006;-82
2023/08/20 13:07:38;;;;;;;;;;;24.70;69.70;;;;;;5001415;28;43590;-86
2023/08/20 13:10:04;;;;;;;;;;;24.80;69.40;;;;;;5004783;28;43248;-83
2023/08/20 13:12:31;;;;;;;;;;;24.80;70.40;;;;;;4997781;28;43001;-87
2023/08/20 13:14:57;;;;;;;;;;;24.70;69.90;;;;;;4995808;28;43059;-87
2023/08/20 13:17:23;;;;;;;;;;;24.60;69.90;;;;;;5001699;28;42935;-87
2023/08/20 13:19:48;;;;;;;;;;;24.60;70.40;;;;;;5002429;28;43413;-88
2023/08/20 13:22:14;;;;;;;;;;;24.60;70.20;;;;;;5013748;28;45271;-87
2023/08/20 13:24:40;;;;;;;;;;;24.50;69.50;;;;;;4999607;28;43081;-90
2023/08/20 13:27:05;;;;;;;;;;;24.70;70.80;;;;;;5006023;28;43519;-90
2023/08/20 13:29:31;;;;;;;;;;;24.60;75.00;;;;;;5002556;28;43271;-87
2023/08/20 13:31:56;;;;;;;;;;;24.60;74.70;;;;;;5000533;28;43912;-88
2023/08/20 13:34:24;;;;;;;;;;;24.80;74.90;;;;;;4994974;28;43013;-89
2023/08/20 13:36:50;;;;;;;;;;;24.60;73.60;;;;;;5001424;28;44949;-87
2023/08/20 13:41:48;;;;;;;;;;;24.70;72.90;;;;;;5111427;22;43079;-83
2023/08/20 13:44:14;;;;;;;;;;;25.10;75.00;;;;;;5022819;28;43411;-81
2023/08/20 13:46:39;;;;;;;;;;;25.20;75.00;;;;;;5020456;28;44411;-89
2023/08/20 13:49:05;;;;;;;;;;;25.30;73.90;;;;;;5022474;28;43029;-85
2023/08/20 13:51:31;;;;;;;;;;;25.30;73.50;;;;;;5019648;28;43969;-92
2023/08/20 13:53:56;;;;;;;;;;;25.30;74.40;;;;;;5025218;28;43036;-86
2023/08/20 13:56:22;;;;;;;;;;;25.40;74.30;;;;;;5020370;28;42973;-84
2023/08/20 13:58:47;;;;;;;;;;;25.70;74.00;;;;;;5020717;28;43166;-86
2023/08/20 14:01:16;;;;;;;;;;;26.00;74.00;;;;;;5023247;28;43207;-84
2023/08/20 14:03:41;;;;;;;;;;;26.00;71.10;;;;;;5023262;28;43036;-85
2023/08/20 14:06:07;;;;;;;;;;;26.20;73.20;;;;;;5026665;28;43286;-86
2023/08/20 14:08:41;;;;;;;;;;;26.40;73.10;;;;;;5023824;28;42962;-89
2023/08/20 14:11:07;;;;;;;;;;;26.50;73.00;;;;;;5023637;28;42941;-84
2023/08/20 14:13:32;;;;;;;;;;;26.60;72.70;;;;;;5023806;28;42779;-86
2023/08/20 14:16:04;;;;;;;;;;;26.70;72.50;;;;;;5023955;28;43272;-91
2023/08/20 14:18:29;;;;;;;;;;;26.70;70.00;;;;;;5022332;28;43029;-85
2023/08/20 14:20:55;;;;;;;;;;;26.80;72.30;;;;;;5022950;28;42846;-85
2023/08/20 14:23:20;;;;;;;;;;;26.80;72.20;;;;;;5023312;28;42781;-85
2023/08/20 14:25:46;;;;;;;;;;;27.00;72.30;;;;;;5023417;28;43080;-83
2023/08/20 14:28:11;;;;;;;;;;;27.00;72.30;;;;;;5023269;28;43063;-83